<?xml version="1.0" encoding="utf-8"?>
<gpx xmlns:xsi="http://www.w3.org/2001/XMLSchema-instance" xmlns:xsd="http://www.w3.org/2001/XMLSchema" version="1.1" creator="Shapelink.com" xmlns="http://www.topografix.com/GPX/1/1" xmlns:gpxtpx="http://www.garmin.com/xmlschemas/TrackPointExtension/v1">
  <metadata>
    <name>Gåing 3.24 km, 2012-07-10</name>
    <desc></desc>
    <author><name>Mikael Blom</name></author> 
    <time>2012-07-10T07:08:12Z</time>
  </metadata>
  <trk>
    <name>Gåing 3.24 km, 2012-07-10</name>
    <trkseg>
      <trkpt lat="59.978789" lon="17.739732">
        <ele>36.6675</ele>
        <time>2012-07-10T07:08:12Z</time>
      </trkpt>
      <trkpt lat="59.9787742" lon="17.7395764">
        <ele>38.1094</ele>
        <time>2012-07-10T07:08:17Z</time>
      </trkpt>
      <trkpt lat="59.9788281" lon="17.7394976">
        <ele>40.9934</ele>
        <time>2012-07-10T07:08:21Z</time>
      </trkpt>
      <trkpt lat="59.9788926" lon="17.739413">
        <ele>39.5513</ele>
        <time>2012-07-10T07:08:27Z</time>
      </trkpt>
      <trkpt lat="59.9789112" lon="17.7393243">
        <ele>39.0707</ele>
        <time>2012-07-10T07:08:32Z</time>
      </trkpt>
      <trkpt lat="59.9789314" lon="17.7392569">
        <ele>39.5513</ele>
        <time>2012-07-10T07:08:36Z</time>
      </trkpt>
      <trkpt lat="59.9790552" lon="17.7392129">
        <ele>37.1481</ele>
        <time>2012-07-10T07:08:45Z</time>
      </trkpt>
      <trkpt lat="59.9791517" lon="17.7391551">
        <ele>36.1868</ele>
        <time>2012-07-10T07:08:53Z</time>
      </trkpt>
      <trkpt lat="59.9793727" lon="17.7390268">
        <ele>38.1094</ele>
        <time>2012-07-10T07:09:09Z</time>
      </trkpt>
      <trkpt lat="59.9793884" lon="17.7389675">
        <ele>40.0321</ele>
        <time>2012-07-10T07:09:11Z</time>
      </trkpt>
      <trkpt lat="59.9794511" lon="17.7388338">
        <ele>45.3192</ele>
        <time>2012-07-10T07:09:17Z</time>
      </trkpt>
      <trkpt lat="59.9795407" lon="17.7386764">
        <ele>53.4905</ele>
        <time>2012-07-10T07:09:24Z</time>
      </trkpt>
      <trkpt lat="59.979635" lon="17.7386249">
        <ele>56.8551</ele>
        <time>2012-07-10T07:09:31Z</time>
      </trkpt>
      <trkpt lat="59.9796743" lon="17.7384976">
        <ele>59.2584</ele>
        <time>2012-07-10T07:09:35Z</time>
      </trkpt>
      <trkpt lat="59.9797783" lon="17.7383344">
        <ele>67.9103</ele>
        <time>2012-07-10T07:09:42Z</time>
      </trkpt>
      <trkpt lat="59.9803507" lon="17.7384927">
        <ele>66.949</ele>
        <time>2012-07-10T07:10:14Z</time>
      </trkpt>
      <trkpt lat="59.9803935" lon="17.7384555">
        <ele>68.8716</ele>
        <time>2012-07-10T07:10:19Z</time>
      </trkpt>
      <trkpt lat="59.9804212" lon="17.7383995">
        <ele>71.2749</ele>
        <time>2012-07-10T07:10:23Z</time>
      </trkpt>
      <trkpt lat="59.9804642" lon="17.7383943">
        <ele>74.6395</ele>
        <time>2012-07-10T07:10:27Z</time>
      </trkpt>
      <trkpt lat="59.9805215" lon="17.7383842">
        <ele>82.8108</ele>
        <time>2012-07-10T07:10:30Z</time>
      </trkpt>
      <trkpt lat="59.9805633" lon="17.7382954">
        <ele>83.772</ele>
        <time>2012-07-10T07:10:34Z</time>
      </trkpt>
      <trkpt lat="59.9806943" lon="17.7383924">
        <ele>87.1366</ele>
        <time>2012-07-10T07:10:39Z</time>
      </trkpt>
      <trkpt lat="59.9807429" lon="17.7382737">
        <ele>85.214</ele>
        <time>2012-07-10T07:10:44Z</time>
      </trkpt>
      <trkpt lat="59.9808004" lon="17.7381389">
        <ele>90.5013</ele>
        <time>2012-07-10T07:10:49Z</time>
      </trkpt>
      <trkpt lat="59.9808009" lon="17.7381171">
        <ele>90.5013</ele>
        <time>2012-07-10T07:10:50Z</time>
      </trkpt>
      <trkpt lat="59.9809288" lon="17.7380788">
        <ele>94.3466</ele>
        <time>2012-07-10T07:10:55Z</time>
      </trkpt>
      <trkpt lat="59.9809717" lon="17.7381067">
        <ele>84.7334</ele>
        <time>2012-07-10T07:11:02Z</time>
      </trkpt>
      <trkpt lat="59.9810371" lon="17.7380987">
        <ele>85.214</ele>
        <time>2012-07-10T07:11:06Z</time>
      </trkpt>
      <trkpt lat="59.9810682" lon="17.7380472">
        <ele>84.2527</ele>
        <time>2012-07-10T07:11:09Z</time>
      </trkpt>
      <trkpt lat="59.9811402" lon="17.7381731">
        <ele>71.2749</ele>
        <time>2012-07-10T07:11:14Z</time>
      </trkpt>
      <trkpt lat="59.9812924" lon="17.7382064">
        <ele>68.8716</ele>
        <time>2012-07-10T07:11:20Z</time>
      </trkpt>
      <trkpt lat="59.9813791" lon="17.7381982">
        <ele>72.2362</ele>
        <time>2012-07-10T07:11:25Z</time>
      </trkpt>
      <trkpt lat="59.9814282" lon="17.7383187">
        <ele>70.7942</ele>
        <time>2012-07-10T07:11:28Z</time>
      </trkpt>
      <trkpt lat="59.9815381" lon="17.738458">
        <ele>63.5844</ele>
        <time>2012-07-10T07:11:34Z</time>
      </trkpt>
      <trkpt lat="59.9816059" lon="17.7384403">
        <ele>62.6229</ele>
        <time>2012-07-10T07:11:39Z</time>
      </trkpt>
      <trkpt lat="59.9816919" lon="17.7383943">
        <ele>60.7003</ele>
        <time>2012-07-10T07:11:45Z</time>
      </trkpt>
      <trkpt lat="59.9817363" lon="17.7383825">
        <ele>56.8551</ele>
        <time>2012-07-10T07:11:49Z</time>
      </trkpt>
      <trkpt lat="59.9818664" lon="17.7382903">
        <ele>55.8938</ele>
        <time>2012-07-10T07:11:57Z</time>
      </trkpt>
      <trkpt lat="59.981924" lon="17.7382632">
        <ele>52.0486</ele>
        <time>2012-07-10T07:12:02Z</time>
      </trkpt>
      <trkpt lat="59.9820291" lon="17.7382198">
        <ele>50.6066</ele>
        <time>2012-07-10T07:12:10Z</time>
      </trkpt>
      <trkpt lat="59.9821518" lon="17.7381722">
        <ele>62.6229</ele>
        <time>2012-07-10T07:12:16Z</time>
      </trkpt>
      <trkpt lat="59.9821845" lon="17.7381293">
        <ele>58.2971</ele>
        <time>2012-07-10T07:12:20Z</time>
      </trkpt>
      <trkpt lat="59.9822519" lon="17.7381146">
        <ele>56.3745</ele>
        <time>2012-07-10T07:12:25Z</time>
      </trkpt>
      <trkpt lat="59.9823378" lon="17.7381002">
        <ele>58.2971</ele>
        <time>2012-07-10T07:12:31Z</time>
      </trkpt>
      <trkpt lat="59.9823936" lon="17.7380658">
        <ele>52.5292</ele>
        <time>2012-07-10T07:12:36Z</time>
      </trkpt>
      <trkpt lat="59.9824925" lon="17.7380835">
        <ele>55.4131</ele>
        <time>2012-07-10T07:12:41Z</time>
      </trkpt>
      <trkpt lat="59.9825423" lon="17.7380696">
        <ele>59.2584</ele>
        <time>2012-07-10T07:12:43Z</time>
      </trkpt>
      <trkpt lat="59.9826616" lon="17.7380653">
        <ele>57.3358</ele>
        <time>2012-07-10T07:12:50Z</time>
      </trkpt>
      <trkpt lat="59.9827006" lon="17.738038">
        <ele>54.4518</ele>
        <time>2012-07-10T07:12:53Z</time>
      </trkpt>
      <trkpt lat="59.9827652" lon="17.7380763">
        <ele>51.0872</ele>
        <time>2012-07-10T07:12:59Z</time>
      </trkpt>
      <trkpt lat="59.9827766" lon="17.7380739">
        <ele>50.6066</ele>
        <time>2012-07-10T07:13:00Z</time>
      </trkpt>
      <trkpt lat="59.982829" lon="17.7381067">
        <ele>48.2034</ele>
        <time>2012-07-10T07:13:04Z</time>
      </trkpt>
      <trkpt lat="59.9828788" lon="17.738157">
        <ele>45.3192</ele>
        <time>2012-07-10T07:13:09Z</time>
      </trkpt>
      <trkpt lat="59.9830304" lon="17.7381534">
        <ele>56.3745</ele>
        <time>2012-07-10T07:13:15Z</time>
      </trkpt>
      <trkpt lat="59.9830631" lon="17.738156">
        <ele>53.4905</ele>
        <time>2012-07-10T07:13:20Z</time>
      </trkpt>
      <trkpt lat="59.9831124" lon="17.7381784">
        <ele>49.1646</ele>
        <time>2012-07-10T07:13:25Z</time>
      </trkpt>
      <trkpt lat="59.9831716" lon="17.7381357">
        <ele>48.2034</ele>
        <time>2012-07-10T07:13:30Z</time>
      </trkpt>
      <trkpt lat="59.9832291" lon="17.7381116">
        <ele>51.0872</ele>
        <time>2012-07-10T07:13:33Z</time>
      </trkpt>
      <trkpt lat="59.9833096" lon="17.73808">
        <ele>49.6453</ele>
        <time>2012-07-10T07:13:37Z</time>
      </trkpt>
      <trkpt lat="59.9834894" lon="17.7380592">
        <ele>58.2971</ele>
        <time>2012-07-10T07:13:46Z</time>
      </trkpt>
      <trkpt lat="59.9835883" lon="17.7380318">
        <ele>64.0651</ele>
        <time>2012-07-10T07:13:53Z</time>
      </trkpt>
      <trkpt lat="59.9837671" lon="17.7380396">
        <ele>77.5234</ele>
        <time>2012-07-10T07:14:02Z</time>
      </trkpt>
      <trkpt lat="59.9838448" lon="17.7380298">
        <ele>86.1753</ele>
        <time>2012-07-10T07:14:05Z</time>
      </trkpt>
      <trkpt lat="59.9839429" lon="17.7380148">
        <ele>92.9045</ele>
        <time>2012-07-10T07:14:10Z</time>
      </trkpt>
      <trkpt lat="59.9839665" lon="17.7380137">
        <ele>95.7885</ele>
        <time>2012-07-10T07:14:11Z</time>
      </trkpt>
      <trkpt lat="59.9839856" lon="17.7380422">
        <ele>87.6172</ele>
        <time>2012-07-10T07:14:17Z</time>
      </trkpt>
      <trkpt lat="59.9840398" lon="17.7379881">
        <ele>78.004</ele>
        <time>2012-07-10T07:14:22Z</time>
      </trkpt>
      <trkpt lat="59.9840572" lon="17.7379779">
        <ele>79.9266</ele>
        <time>2012-07-10T07:14:23Z</time>
      </trkpt>
      <trkpt lat="59.9842218" lon="17.7379301">
        <ele>77.5234</ele>
        <time>2012-07-10T07:14:30Z</time>
      </trkpt>
      <trkpt lat="59.9843054" lon="17.7379541">
        <ele>76.5621</ele>
        <time>2012-07-10T07:14:36Z</time>
      </trkpt>
      <trkpt lat="59.9843316" lon="17.7379396">
        <ele>73.1976</ele>
        <time>2012-07-10T07:14:39Z</time>
      </trkpt>
      <trkpt lat="59.9843732" lon="17.7379589">
        <ele>75.6008</ele>
        <time>2012-07-10T07:14:41Z</time>
      </trkpt>
      <trkpt lat="59.9844012" lon="17.7379868">
        <ele>72.7169</ele>
        <time>2012-07-10T07:14:44Z</time>
      </trkpt>
      <trkpt lat="59.9844736" lon="17.7380474">
        <ele>71.7555</ele>
        <time>2012-07-10T07:14:50Z</time>
      </trkpt>
      <trkpt lat="59.9845786" lon="17.738064">
        <ele>76.0814</ele>
        <time>2012-07-10T07:14:57Z</time>
      </trkpt>
      <trkpt lat="59.9846155" lon="17.7380634">
        <ele>75.6008</ele>
        <time>2012-07-10T07:15:00Z</time>
      </trkpt>
      <trkpt lat="59.9846931" lon="17.7380788">
        <ele>65.5071</ele>
        <time>2012-07-10T07:15:06Z</time>
      </trkpt>
      <trkpt lat="59.984712" lon="17.7380791">
        <ele>65.5071</ele>
        <time>2012-07-10T07:15:07Z</time>
      </trkpt>
      <trkpt lat="59.9847601" lon="17.7381085">
        <ele>65.9877</ele>
        <time>2012-07-10T07:15:10Z</time>
      </trkpt>
      <trkpt lat="59.9848081" lon="17.7381095">
        <ele>60.2197</ele>
        <time>2012-07-10T07:15:15Z</time>
      </trkpt>
      <trkpt lat="59.9848642" lon="17.7381365">
        <ele>59.2584</ele>
        <time>2012-07-10T07:15:20Z</time>
      </trkpt>
      <trkpt lat="59.9849767" lon="17.7381532">
        <ele>61.181</ele>
        <time>2012-07-10T07:15:26Z</time>
      </trkpt>
      <trkpt lat="59.9851714" lon="17.7382137">
        <ele>80.4075</ele>
        <time>2012-07-10T07:15:34Z</time>
      </trkpt>
      <trkpt lat="59.9852746" lon="17.7382264">
        <ele>80.8882</ele>
        <time>2012-07-10T07:15:41Z</time>
      </trkpt>
      <trkpt lat="59.9853542" lon="17.7382567">
        <ele>82.8108</ele>
        <time>2012-07-10T07:15:46Z</time>
      </trkpt>
      <trkpt lat="59.9854023" lon="17.738257">
        <ele>73.6782</ele>
        <time>2012-07-10T07:15:52Z</time>
      </trkpt>
      <trkpt lat="59.9854314" lon="17.7382687">
        <ele>66.4683</ele>
        <time>2012-07-10T07:15:56Z</time>
      </trkpt>
      <trkpt lat="59.9855151" lon="17.7382815">
        <ele>60.2197</ele>
        <time>2012-07-10T07:16:03Z</time>
      </trkpt>
      <trkpt lat="59.9855291" lon="17.7383189">
        <ele>51.5679</ele>
        <time>2012-07-10T07:16:06Z</time>
      </trkpt>
      <trkpt lat="59.9855661" lon="17.7383825">
        <ele>47.7225</ele>
        <time>2012-07-10T07:16:10Z</time>
      </trkpt>
      <trkpt lat="59.9856526" lon="17.7384212">
        <ele>52.5292</ele>
        <time>2012-07-10T07:16:14Z</time>
      </trkpt>
      <trkpt lat="59.9857938" lon="17.7384528">
        <ele>63.5844</ele>
        <time>2012-07-10T07:16:20Z</time>
      </trkpt>
      <trkpt lat="59.9859006" lon="17.7384813">
        <ele>71.2749</ele>
        <time>2012-07-10T07:16:24Z</time>
      </trkpt>
      <trkpt lat="59.9859065" lon="17.7385648">
        <ele>59.7391</ele>
        <time>2012-07-10T07:16:29Z</time>
      </trkpt>
      <trkpt lat="59.9859609" lon="17.738628">
        <ele>49.1646</ele>
        <time>2012-07-10T07:16:35Z</time>
      </trkpt>
      <trkpt lat="59.9860135" lon="17.73866">
        <ele>52.0486</ele>
        <time>2012-07-10T07:16:38Z</time>
      </trkpt>
      <trkpt lat="59.9861601" lon="17.738713">
        <ele>62.1423</ele>
        <time>2012-07-10T07:16:45Z</time>
      </trkpt>
      <trkpt lat="59.986187" lon="17.7387642">
        <ele>52.0486</ele>
        <time>2012-07-10T07:16:50Z</time>
      </trkpt>
      <trkpt lat="59.9862041" lon="17.7388465">
        <ele>48.684</ele>
        <time>2012-07-10T07:16:53Z</time>
      </trkpt>
      <trkpt lat="59.9864047" lon="17.7388988">
        <ele>71.7555</ele>
        <time>2012-07-10T07:17:00Z</time>
      </trkpt>
      <trkpt lat="59.9865792" lon="17.7389213">
        <ele>88.098</ele>
        <time>2012-07-10T07:17:06Z</time>
      </trkpt>
      <trkpt lat="59.9866446" lon="17.7389376">
        <ele>89.0593</ele>
        <time>2012-07-10T07:17:10Z</time>
      </trkpt>
      <trkpt lat="59.9866907" lon="17.7389872">
        <ele>82.3301</ele>
        <time>2012-07-10T07:17:16Z</time>
      </trkpt>
      <trkpt lat="59.9866998" lon="17.7390156">
        <ele>82.3301</ele>
        <time>2012-07-10T07:17:17Z</time>
      </trkpt>
      <trkpt lat="59.9867755" lon="17.7390474">
        <ele>74.6395</ele>
        <time>2012-07-10T07:17:23Z</time>
      </trkpt>
      <trkpt lat="59.9867832" lon="17.7390672">
        <ele>69.8329</ele>
        <time>2012-07-10T07:17:25Z</time>
      </trkpt>
      <trkpt lat="59.9868583" lon="17.7391938">
        <ele>65.0264</ele>
        <time>2012-07-10T07:17:32Z</time>
      </trkpt>
      <trkpt lat="59.9868792" lon="17.7392366">
        <ele>65.9877</ele>
        <time>2012-07-10T07:17:34Z</time>
      </trkpt>
      <trkpt lat="59.9869093" lon="17.7393031">
        <ele>62.1423</ele>
        <time>2012-07-10T07:17:38Z</time>
      </trkpt>
      <trkpt lat="59.986948" lon="17.7393961">
        <ele>48.684</ele>
        <time>2012-07-10T07:17:45Z</time>
      </trkpt>
      <trkpt lat="59.9870697" lon="17.7394261">
        <ele>55.4131</ele>
        <time>2012-07-10T07:17:51Z</time>
      </trkpt>
      <trkpt lat="59.9871064" lon="17.7394171">
        <ele>54.4518</ele>
        <time>2012-07-10T07:17:53Z</time>
      </trkpt>
      <trkpt lat="59.987261" lon="17.7394138">
        <ele>68.3909</ele>
        <time>2012-07-10T07:18:00Z</time>
      </trkpt>
      <trkpt lat="59.9873543" lon="17.7394091">
        <ele>75.6008</ele>
        <time>2012-07-10T07:18:07Z</time>
      </trkpt>
      <trkpt lat="59.9873968" lon="17.7393793">
        <ele>73.1976</ele>
        <time>2012-07-10T07:18:11Z</time>
      </trkpt>
      <trkpt lat="59.9874832" lon="17.7393849">
        <ele>68.8716</ele>
        <time>2012-07-10T07:18:17Z</time>
      </trkpt>
      <trkpt lat="59.9875169" lon="17.739359">
        <ele>64.0651</ele>
        <time>2012-07-10T07:18:20Z</time>
      </trkpt>
      <trkpt lat="59.9875942" lon="17.7392855">
        <ele>65.5071</ele>
        <time>2012-07-10T07:18:24Z</time>
      </trkpt>
      <trkpt lat="59.9876759" lon="17.7392766">
        <ele>62.6229</ele>
        <time>2012-07-10T07:18:30Z</time>
      </trkpt>
      <trkpt lat="59.987717" lon="17.7392609">
        <ele>62.1423</ele>
        <time>2012-07-10T07:18:32Z</time>
      </trkpt>
      <trkpt lat="59.9878697" lon="17.7392661">
        <ele>73.1976</ele>
        <time>2012-07-10T07:18:39Z</time>
      </trkpt>
      <trkpt lat="59.9879663" lon="17.7392843">
        <ele>78.004</ele>
        <time>2012-07-10T07:18:44Z</time>
      </trkpt>
      <trkpt lat="59.9880539" lon="17.7392641">
        <ele>78.9655</ele>
        <time>2012-07-10T07:18:49Z</time>
      </trkpt>
      <trkpt lat="59.9880893" lon="17.7393315">
        <ele>68.8716</ele>
        <time>2012-07-10T07:18:56Z</time>
      </trkpt>
      <trkpt lat="59.988166" lon="17.7392997">
        <ele>68.3909</ele>
        <time>2012-07-10T07:19:00Z</time>
      </trkpt>
      <trkpt lat="59.9882663" lon="17.7391942">
        <ele>61.181</ele>
        <time>2012-07-10T07:19:06Z</time>
      </trkpt>
      <trkpt lat="59.9883203" lon="17.7391695">
        <ele>49.1646</ele>
        <time>2012-07-10T07:19:12Z</time>
      </trkpt>
      <trkpt lat="59.9883538" lon="17.7391744">
        <ele>48.2034</ele>
        <time>2012-07-10T07:19:16Z</time>
      </trkpt>
      <trkpt lat="59.9884075" lon="17.7391113">
        <ele>54.9324</ele>
        <time>2012-07-10T07:19:20Z</time>
      </trkpt>
      <trkpt lat="59.988497" lon="17.739121">
        <ele>56.8551</ele>
        <time>2012-07-10T07:19:25Z</time>
      </trkpt>
      <trkpt lat="59.9885963" lon="17.739033">
        <ele>60.7003</ele>
        <time>2012-07-10T07:19:29Z</time>
      </trkpt>
      <trkpt lat="59.9886677" lon="17.7389948">
        <ele>64.0651</ele>
        <time>2012-07-10T07:19:33Z</time>
      </trkpt>
      <trkpt lat="59.9887969" lon="17.7389653">
        <ele>75.6008</ele>
        <time>2012-07-10T07:19:39Z</time>
      </trkpt>
      <trkpt lat="59.988899" lon="17.7388154">
        <ele>80.8882</ele>
        <time>2012-07-10T07:19:45Z</time>
      </trkpt>
      <trkpt lat="59.9889027" lon="17.7388399">
        <ele>75.1202</ele>
        <time>2012-07-10T07:19:50Z</time>
      </trkpt>
      <trkpt lat="59.9889623" lon="17.7388045">
        <ele>73.6782</ele>
        <time>2012-07-10T07:19:54Z</time>
      </trkpt>
      <trkpt lat="59.9890455" lon="17.7387509">
        <ele>73.6782</ele>
        <time>2012-07-10T07:19:59Z</time>
      </trkpt>
      <trkpt lat="59.9891515" lon="17.73867">
        <ele>77.0428</ele>
        <time>2012-07-10T07:20:04Z</time>
      </trkpt>
      <trkpt lat="59.989256" lon="17.7386352">
        <ele>80.4075</ele>
        <time>2012-07-10T07:20:10Z</time>
      </trkpt>
      <trkpt lat="59.9893139" lon="17.7385276">
        <ele>78.004</ele>
        <time>2012-07-10T07:20:15Z</time>
      </trkpt>
      <trkpt lat="59.9893584" lon="17.7384612">
        <ele>67.9103</ele>
        <time>2012-07-10T07:20:21Z</time>
      </trkpt>
      <trkpt lat="59.9894324" lon="17.7384287">
        <ele>66.4683</ele>
        <time>2012-07-10T07:20:27Z</time>
      </trkpt>
      <trkpt lat="59.9895196" lon="17.7384327">
        <ele>66.4683</ele>
        <time>2012-07-10T07:20:32Z</time>
      </trkpt>
      <trkpt lat="59.9895385" lon="17.7384447">
        <ele>67.4297</ele>
        <time>2012-07-10T07:20:33Z</time>
      </trkpt>
      <trkpt lat="59.9896652" lon="17.7384245">
        <ele>71.7555</ele>
        <time>2012-07-10T07:20:39Z</time>
      </trkpt>
      <trkpt lat="59.9897419" lon="17.7383432">
        <ele>70.7942</ele>
        <time>2012-07-10T07:20:44Z</time>
      </trkpt>
      <trkpt lat="59.9897529" lon="17.7383514">
        <ele>69.3523</ele>
        <time>2012-07-10T07:20:45Z</time>
      </trkpt>
      <trkpt lat="59.9898314" lon="17.7383132">
        <ele>60.2197</ele>
        <time>2012-07-10T07:20:51Z</time>
      </trkpt>
      <trkpt lat="59.9899272" lon="17.7383082">
        <ele>61.181</ele>
        <time>2012-07-10T07:20:56Z</time>
      </trkpt>
      <trkpt lat="59.9899913" lon="17.7383027">
        <ele>59.7391</ele>
        <time>2012-07-10T07:20:59Z</time>
      </trkpt>
      <trkpt lat="59.9900185" lon="17.7383197">
        <ele>62.1423</ele>
        <time>2012-07-10T07:21:03Z</time>
      </trkpt>
      <trkpt lat="59.990057" lon="17.7382737">
        <ele>64.0651</ele>
        <time>2012-07-10T07:21:07Z</time>
      </trkpt>
      <trkpt lat="59.9901857" lon="17.7381793">
        <ele>69.8329</ele>
        <time>2012-07-10T07:21:13Z</time>
      </trkpt>
      <trkpt lat="59.9902141" lon="17.7381692">
        <ele>70.7942</ele>
        <time>2012-07-10T07:21:15Z</time>
      </trkpt>
      <trkpt lat="59.9903437" lon="17.7381515">
        <ele>67.4297</ele>
        <time>2012-07-10T07:21:22Z</time>
      </trkpt>
      <trkpt lat="59.9904442" lon="17.7380793">
        <ele>66.4683</ele>
        <time>2012-07-10T07:21:27Z</time>
      </trkpt>
      <trkpt lat="59.9904556" lon="17.7380827">
        <ele>64.5457</ele>
        <time>2012-07-10T07:21:28Z</time>
      </trkpt>
      <trkpt lat="59.9905782" lon="17.7379873">
        <ele>59.7391</ele>
        <time>2012-07-10T07:21:36Z</time>
      </trkpt>
      <trkpt lat="59.9906254" lon="17.7379547">
        <ele>60.2197</ele>
        <time>2012-07-10T07:21:38Z</time>
      </trkpt>
      <trkpt lat="59.9907367" lon="17.7378552">
        <ele>52.0486</ele>
        <time>2012-07-10T07:21:43Z</time>
      </trkpt>
      <trkpt lat="59.9907714" lon="17.7379338">
        <ele>50.126</ele>
        <time>2012-07-10T07:21:51Z</time>
      </trkpt>
      <trkpt lat="59.9908546" lon="17.7378966">
        <ele>53.0098</ele>
        <time>2012-07-10T07:21:55Z</time>
      </trkpt>
      <trkpt lat="59.9909034" lon="17.7379078">
        <ele>64.0651</ele>
        <time>2012-07-10T07:22:00Z</time>
      </trkpt>
      <trkpt lat="59.9910027" lon="17.7377707">
        <ele>70.7942</ele>
        <time>2012-07-10T07:22:06Z</time>
      </trkpt>
      <trkpt lat="59.991026" lon="17.7377193">
        <ele>69.8329</ele>
        <time>2012-07-10T07:22:08Z</time>
      </trkpt>
      <trkpt lat="59.9911404" lon="17.7376547">
        <ele>78.9655</ele>
        <time>2012-07-10T07:22:14Z</time>
      </trkpt>
      <trkpt lat="59.9912077" lon="17.7376479">
        <ele>80.8882</ele>
        <time>2012-07-10T07:22:19Z</time>
      </trkpt>
      <trkpt lat="59.9912838" lon="17.7376427">
        <ele>80.4075</ele>
        <time>2012-07-10T07:22:23Z</time>
      </trkpt>
      <trkpt lat="59.9914021" lon="17.7376039">
        <ele>75.6008</ele>
        <time>2012-07-10T07:22:30Z</time>
      </trkpt>
      <trkpt lat="59.9914274" lon="17.7376273">
        <ele>74.6395</ele>
        <time>2012-07-10T07:22:33Z</time>
      </trkpt>
      <trkpt lat="59.9914616" lon="17.7376165">
        <ele>77.5234</ele>
        <time>2012-07-10T07:22:35Z</time>
      </trkpt>
      <trkpt lat="59.9915983" lon="17.7376889">
        <ele>82.3301</ele>
        <time>2012-07-10T07:22:41Z</time>
      </trkpt>
      <trkpt lat="59.9916258" lon="17.7376806">
        <ele>82.3301</ele>
        <time>2012-07-10T07:22:42Z</time>
      </trkpt>
      <trkpt lat="59.9916551" lon="17.7376719">
        <ele>82.8108</ele>
        <time>2012-07-10T07:22:44Z</time>
      </trkpt>
      <trkpt lat="59.9917553" lon="17.737641">
        <ele>77.0428</ele>
        <time>2012-07-10T07:22:50Z</time>
      </trkpt>
      <trkpt lat="59.991835" lon="17.7376221">
        <ele>81.3688</ele>
        <time>2012-07-10T07:22:55Z</time>
      </trkpt>
      <trkpt lat="59.9918682" lon="17.7375737">
        <ele>74.1588</ele>
        <time>2012-07-10T07:22:59Z</time>
      </trkpt>
      <trkpt lat="59.9920195" lon="17.7375718">
        <ele>74.6395</ele>
        <time>2012-07-10T07:23:04Z</time>
      </trkpt>
      <trkpt lat="59.9920732" lon="17.7375931">
        <ele>76.0814</ele>
        <time>2012-07-10T07:23:07Z</time>
      </trkpt>
      <trkpt lat="59.9921634" lon="17.7375651">
        <ele>81.3688</ele>
        <time>2012-07-10T07:23:13Z</time>
      </trkpt>
      <trkpt lat="59.9921814" lon="17.7375615">
        <ele>80.4075</ele>
        <time>2012-07-10T07:23:14Z</time>
      </trkpt>
      <trkpt lat="59.9922705" lon="17.7375107">
        <ele>66.4683</ele>
        <time>2012-07-10T07:23:20Z</time>
      </trkpt>
      <trkpt lat="59.9923459" lon="17.7374593">
        <ele>67.4297</ele>
        <time>2012-07-10T07:23:24Z</time>
      </trkpt>
      <trkpt lat="59.9924379" lon="17.7374212">
        <ele>66.949</ele>
        <time>2012-07-10T07:23:29Z</time>
      </trkpt>
      <trkpt lat="59.9924339" lon="17.7374459">
        <ele>68.3909</ele>
        <time>2012-07-10T07:23:30Z</time>
      </trkpt>
      <trkpt lat="59.9923395" lon="17.7375849">
        <ele>66.949</ele>
        <time>2012-07-10T07:23:34Z</time>
      </trkpt>
      <trkpt lat="59.9921607" lon="17.7376267">
        <ele>52.5292</ele>
        <time>2012-07-10T07:23:41Z</time>
      </trkpt>
      <trkpt lat="59.9920467" lon="17.7377434">
        <ele>43.8773</ele>
        <time>2012-07-10T07:23:45Z</time>
      </trkpt>
      <trkpt lat="59.9919096" lon="17.7378112">
        <ele>38.5901</ele>
        <time>2012-07-10T07:23:51Z</time>
      </trkpt>
      <trkpt lat="59.9918045" lon="17.7377731">
        <ele>44.358</ele>
        <time>2012-07-10T07:23:58Z</time>
      </trkpt>
      <trkpt lat="59.9917939" lon="17.7377609">
        <ele>59.7391</ele>
        <time>2012-07-10T07:24:03Z</time>
      </trkpt>
      <trkpt lat="59.9916749" lon="17.7377612">
        <ele>58.7777</ele>
        <time>2012-07-10T07:24:10Z</time>
      </trkpt>
      <trkpt lat="59.9916128" lon="17.7377433">
        <ele>66.949</ele>
        <time>2012-07-10T07:24:15Z</time>
      </trkpt>
      <trkpt lat="59.9914693" lon="17.7377081">
        <ele>64.0651</ele>
        <time>2012-07-10T07:24:22Z</time>
      </trkpt>
      <trkpt lat="59.9914249" lon="17.7377709">
        <ele>58.7777</ele>
        <time>2012-07-10T07:24:24Z</time>
      </trkpt>
      <trkpt lat="59.9912952" lon="17.7377717">
        <ele>55.8938</ele>
        <time>2012-07-10T07:24:31Z</time>
      </trkpt>
      <trkpt lat="59.9912045" lon="17.7378387">
        <ele>48.2034</ele>
        <time>2012-07-10T07:24:36Z</time>
      </trkpt>
      <trkpt lat="59.9911829" lon="17.7378427">
        <ele>46.7612</ele>
        <time>2012-07-10T07:24:37Z</time>
      </trkpt>
      <trkpt lat="59.9911165" lon="17.7378265">
        <ele>56.3745</ele>
        <time>2012-07-10T07:24:44Z</time>
      </trkpt>
      <trkpt lat="59.9910553" lon="17.7378451">
        <ele>66.949</ele>
        <time>2012-07-10T07:24:50Z</time>
      </trkpt>
      <trkpt lat="59.990984" lon="17.7378902">
        <ele>68.3909</ele>
        <time>2012-07-10T07:24:55Z</time>
      </trkpt>
      <trkpt lat="59.9909621" lon="17.7379127">
        <ele>65.9877</ele>
        <time>2012-07-10T07:24:56Z</time>
      </trkpt>
      <trkpt lat="59.9908628" lon="17.7380428">
        <ele>56.3745</ele>
        <time>2012-07-10T07:25:01Z</time>
      </trkpt>
      <trkpt lat="59.9907586" lon="17.7380627">
        <ele>55.4131</ele>
        <time>2012-07-10T07:25:07Z</time>
      </trkpt>
      <trkpt lat="59.990659" lon="17.7381008">
        <ele>51.0872</ele>
        <time>2012-07-10T07:25:12Z</time>
      </trkpt>
      <trkpt lat="59.9906299" lon="17.7381307">
        <ele>62.6229</ele>
        <time>2012-07-10T07:25:17Z</time>
      </trkpt>
      <trkpt lat="59.9905378" lon="17.7381852">
        <ele>55.8938</ele>
        <time>2012-07-10T07:25:22Z</time>
      </trkpt>
      <trkpt lat="59.9904735" lon="17.7382663">
        <ele>55.4131</ele>
        <time>2012-07-10T07:25:26Z</time>
      </trkpt>
      <trkpt lat="59.9904214" lon="17.7382868">
        <ele>55.8938</ele>
        <time>2012-07-10T07:25:29Z</time>
      </trkpt>
      <trkpt lat="59.9903831" lon="17.7383031">
        <ele>53.0098</ele>
        <time>2012-07-10T07:25:31Z</time>
      </trkpt>
      <trkpt lat="59.9902494" lon="17.7383654">
        <ele>49.1646</ele>
        <time>2012-07-10T07:25:38Z</time>
      </trkpt>
      <trkpt lat="59.9902057" lon="17.7383095">
        <ele>54.9324</ele>
        <time>2012-07-10T07:25:42Z</time>
      </trkpt>
      <trkpt lat="59.9901159" lon="17.7383245">
        <ele>55.8938</ele>
        <time>2012-07-10T07:25:49Z</time>
      </trkpt>
      <trkpt lat="59.9900619" lon="17.738392">
        <ele>54.9324</ele>
        <time>2012-07-10T07:25:54Z</time>
      </trkpt>
      <trkpt lat="59.9899684" lon="17.7385004">
        <ele>51.0872</ele>
        <time>2012-07-10T07:26:00Z</time>
      </trkpt>
      <trkpt lat="59.9899516" lon="17.7384955">
        <ele>50.126</ele>
        <time>2012-07-10T07:26:01Z</time>
      </trkpt>
      <trkpt lat="59.9898475" lon="17.7384937">
        <ele>53.9712</ele>
        <time>2012-07-10T07:26:07Z</time>
      </trkpt>
      <trkpt lat="59.9897903" lon="17.7384696">
        <ele>57.3358</ele>
        <time>2012-07-10T07:26:11Z</time>
      </trkpt>
      <trkpt lat="59.9896832" lon="17.7385653">
        <ele>55.4131</ele>
        <time>2012-07-10T07:26:16Z</time>
      </trkpt>
      <trkpt lat="59.9895198" lon="17.7386959">
        <ele>47.2418</ele>
        <time>2012-07-10T07:26:21Z</time>
      </trkpt>
      <trkpt lat="59.9894842" lon="17.7386286">
        <ele>53.9712</ele>
        <time>2012-07-10T07:26:26Z</time>
      </trkpt>
      <trkpt lat="59.9894336" lon="17.7386736">
        <ele>58.7777</ele>
        <time>2012-07-10T07:26:33Z</time>
      </trkpt>
      <trkpt lat="59.9893564" lon="17.7387446">
        <ele>63.1036</ele>
        <time>2012-07-10T07:26:38Z</time>
      </trkpt>
      <trkpt lat="59.9892753" lon="17.7387328">
        <ele>61.181</ele>
        <time>2012-07-10T07:26:42Z</time>
      </trkpt>
      <trkpt lat="59.9891735" lon="17.7387563">
        <ele>56.3745</ele>
        <time>2012-07-10T07:26:47Z</time>
      </trkpt>
      <trkpt lat="59.9891408" lon="17.7387063">
        <ele>61.6617</ele>
        <time>2012-07-10T07:26:53Z</time>
      </trkpt>
      <trkpt lat="59.9890288" lon="17.7388144">
        <ele>57.8165</ele>
        <time>2012-07-10T07:26:59Z</time>
      </trkpt>
      <trkpt lat="59.9889534" lon="17.7389467">
        <ele>57.3358</ele>
        <time>2012-07-10T07:27:05Z</time>
      </trkpt>
      <trkpt lat="59.9888806" lon="17.7390785">
        <ele>58.2971</ele>
        <time>2012-07-10T07:27:12Z</time>
      </trkpt>
      <trkpt lat="59.9888678" lon="17.7390797">
        <ele>60.2197</ele>
        <time>2012-07-10T07:27:13Z</time>
      </trkpt>
      <trkpt lat="59.9888151" lon="17.7390814">
        <ele>66.949</ele>
        <time>2012-07-10T07:27:17Z</time>
      </trkpt>
      <trkpt lat="59.9887698" lon="17.7391015">
        <ele>70.3135</ele>
        <time>2012-07-10T07:27:20Z</time>
      </trkpt>
      <trkpt lat="59.9886831" lon="17.7391518">
        <ele>74.1588</ele>
        <time>2012-07-10T07:27:26Z</time>
      </trkpt>
      <trkpt lat="59.9886146" lon="17.7391683">
        <ele>68.8716</ele>
        <time>2012-07-10T07:27:30Z</time>
      </trkpt>
      <trkpt lat="59.9885486" lon="17.7391642">
        <ele>69.3523</ele>
        <time>2012-07-10T07:27:35Z</time>
      </trkpt>
      <trkpt lat="59.9885315" lon="17.7391916">
        <ele>67.4297</ele>
        <time>2012-07-10T07:27:36Z</time>
      </trkpt>
      <trkpt lat="59.9884134" lon="17.7392567">
        <ele>58.7777</ele>
        <time>2012-07-10T07:27:44Z</time>
      </trkpt>
      <trkpt lat="59.988296" lon="17.7393059">
        <ele>55.4131</ele>
        <time>2012-07-10T07:27:50Z</time>
      </trkpt>
      <trkpt lat="59.9881557" lon="17.7393672">
        <ele>49.6453</ele>
        <time>2012-07-10T07:27:57Z</time>
      </trkpt>
      <trkpt lat="59.9880504" lon="17.7393086">
        <ele>49.1646</ele>
        <time>2012-07-10T07:28:03Z</time>
      </trkpt>
      <trkpt lat="59.9880168" lon="17.7393388">
        <ele>54.4518</ele>
        <time>2012-07-10T07:28:08Z</time>
      </trkpt>
      <trkpt lat="59.9879587" lon="17.7393605">
        <ele>56.3745</ele>
        <time>2012-07-10T07:28:12Z</time>
      </trkpt>
      <trkpt lat="59.9879189" lon="17.7394135">
        <ele>58.2971</ele>
        <time>2012-07-10T07:28:15Z</time>
      </trkpt>
      <trkpt lat="59.9878971" lon="17.7394422">
        <ele>65.0264</ele>
        <time>2012-07-10T07:28:19Z</time>
      </trkpt>
      <trkpt lat="59.9878552" lon="17.7394534">
        <ele>66.4683</ele>
        <time>2012-07-10T07:28:23Z</time>
      </trkpt>
      <trkpt lat="59.9877179" lon="17.7394019">
        <ele>67.9103</ele>
        <time>2012-07-10T07:28:29Z</time>
      </trkpt>
      <trkpt lat="59.9876112" lon="17.739445">
        <ele>62.6229</ele>
        <time>2012-07-10T07:28:35Z</time>
      </trkpt>
      <trkpt lat="59.9874849" lon="17.7395046">
        <ele>55.4131</ele>
        <time>2012-07-10T07:28:39Z</time>
      </trkpt>
      <trkpt lat="59.9874414" lon="17.7395924">
        <ele>53.4905</ele>
        <time>2012-07-10T07:28:43Z</time>
      </trkpt>
      <trkpt lat="59.9873879" lon="17.7395412">
        <ele>55.8938</ele>
        <time>2012-07-10T07:28:48Z</time>
      </trkpt>
      <trkpt lat="59.9873316" lon="17.7395133">
        <ele>55.8938</ele>
        <time>2012-07-10T07:28:54Z</time>
      </trkpt>
      <trkpt lat="59.987132" lon="17.7396466">
        <ele>51.5679</ele>
        <time>2012-07-10T07:29:01Z</time>
      </trkpt>
      <trkpt lat="59.9870184" lon="17.7395815">
        <ele>51.0872</ele>
        <time>2012-07-10T07:29:08Z</time>
      </trkpt>
      <trkpt lat="59.9868878" lon="17.7396031">
        <ele>46.7612</ele>
        <time>2012-07-10T07:29:13Z</time>
      </trkpt>
      <trkpt lat="59.986822" lon="17.7394769">
        <ele>43.3966</ele>
        <time>2012-07-10T07:29:21Z</time>
      </trkpt>
      <trkpt lat="59.9867544" lon="17.739365">
        <ele>39.0707</ele>
        <time>2012-07-10T07:29:27Z</time>
      </trkpt>
      <trkpt lat="59.9866864" lon="17.7393197">
        <ele>40.9934</ele>
        <time>2012-07-10T07:29:32Z</time>
      </trkpt>
      <trkpt lat="59.9866317" lon="17.7392047">
        <ele>45.7999</ele>
        <time>2012-07-10T07:29:37Z</time>
      </trkpt>
      <trkpt lat="59.9865519" lon="17.739258">
        <ele>41.474</ele>
        <time>2012-07-10T07:29:41Z</time>
      </trkpt>
      <trkpt lat="59.9865161" lon="17.7391554">
        <ele>43.3966</ele>
        <time>2012-07-10T07:29:45Z</time>
      </trkpt>
      <trkpt lat="59.9864717" lon="17.739071">
        <ele>51.0872</ele>
        <time>2012-07-10T07:29:49Z</time>
      </trkpt>
      <trkpt lat="59.9864325" lon="17.7390051">
        <ele>53.0098</ele>
        <time>2012-07-10T07:29:53Z</time>
      </trkpt>
      <trkpt lat="59.9863783" lon="17.7388993">
        <ele>63.1036</ele>
        <time>2012-07-10T07:29:58Z</time>
      </trkpt>
      <trkpt lat="59.9863051" lon="17.738831">
        <ele>60.2197</ele>
        <time>2012-07-10T07:30:03Z</time>
      </trkpt>
      <trkpt lat="59.9862088" lon="17.7388032">
        <ele>55.8938</ele>
        <time>2012-07-10T07:30:10Z</time>
      </trkpt>
      <trkpt lat="59.9861147" lon="17.7387235">
        <ele>54.4518</ele>
        <time>2012-07-10T07:30:16Z</time>
      </trkpt>
      <trkpt lat="59.985971" lon="17.7387098">
        <ele>46.7612</ele>
        <time>2012-07-10T07:30:23Z</time>
      </trkpt>
      <trkpt lat="59.9858945" lon="17.7386959">
        <ele>46.7612</ele>
        <time>2012-07-10T07:30:27Z</time>
      </trkpt>
      <trkpt lat="59.9857847" lon="17.7386923">
        <ele>43.3966</ele>
        <time>2012-07-10T07:30:34Z</time>
      </trkpt>
      <trkpt lat="59.9857633" lon="17.7386731">
        <ele>45.7999</ele>
        <time>2012-07-10T07:30:36Z</time>
      </trkpt>
      <trkpt lat="59.9857023" lon="17.7386161">
        <ele>48.2034</ele>
        <time>2012-07-10T07:30:41Z</time>
      </trkpt>
      <trkpt lat="59.9856946" lon="17.7386001">
        <ele>48.2034</ele>
        <time>2012-07-10T07:30:42Z</time>
      </trkpt>
      <trkpt lat="59.9856058" lon="17.7384649">
        <ele>45.7999</ele>
        <time>2012-07-10T07:30:48Z</time>
      </trkpt>
      <trkpt lat="59.9854914" lon="17.7384704">
        <ele>40.5128</ele>
        <time>2012-07-10T07:30:53Z</time>
      </trkpt>
      <trkpt lat="59.9854178" lon="17.7384276">
        <ele>40.0321</ele>
        <time>2012-07-10T07:30:57Z</time>
      </trkpt>
      <trkpt lat="59.9853086" lon="17.7383877">
        <ele>39.5513</ele>
        <time>2012-07-10T07:31:04Z</time>
      </trkpt>
      <trkpt lat="59.9852716" lon="17.7383379">
        <ele>45.3192</ele>
        <time>2012-07-10T07:31:07Z</time>
      </trkpt>
      <trkpt lat="59.9851594" lon="17.7384148">
        <ele>39.5513</ele>
        <time>2012-07-10T07:31:14Z</time>
      </trkpt>
      <trkpt lat="59.9851015" lon="17.7383426">
        <ele>46.7612</ele>
        <time>2012-07-10T07:31:19Z</time>
      </trkpt>
      <trkpt lat="59.9849956" lon="17.7382994">
        <ele>51.5679</ele>
        <time>2012-07-10T07:31:25Z</time>
      </trkpt>
      <trkpt lat="59.9849902" lon="17.7383053">
        <ele>50.6066</ele>
        <time>2012-07-10T07:31:26Z</time>
      </trkpt>
      <trkpt lat="59.9848389" lon="17.7383556">
        <ele>44.358</ele>
        <time>2012-07-10T07:31:34Z</time>
      </trkpt>
      <trkpt lat="59.9847787" lon="17.7383555">
        <ele>44.8386</ele>
        <time>2012-07-10T07:31:36Z</time>
      </trkpt>
      <trkpt lat="59.984705" lon="17.7383961">
        <ele>44.358</ele>
        <time>2012-07-10T07:31:38Z</time>
      </trkpt>
      <trkpt lat="59.9846417" lon="17.7381505">
        <ele>50.126</ele>
        <time>2012-07-10T07:31:45Z</time>
      </trkpt>
      <trkpt lat="59.9845268" lon="17.7381484">
        <ele>50.6066</ele>
        <time>2012-07-10T07:31:51Z</time>
      </trkpt>
      <trkpt lat="59.9845126" lon="17.7381379">
        <ele>51.5679</ele>
        <time>2012-07-10T07:31:52Z</time>
      </trkpt>
      <trkpt lat="59.9844437" lon="17.7381772">
        <ele>52.0486</ele>
        <time>2012-07-10T07:31:56Z</time>
      </trkpt>
      <trkpt lat="59.9844165" lon="17.7381702">
        <ele>53.4905</ele>
        <time>2012-07-10T07:31:58Z</time>
      </trkpt>
      <trkpt lat="59.9843373" lon="17.7381489">
        <ele>46.7612</ele>
        <time>2012-07-10T07:32:04Z</time>
      </trkpt>
      <trkpt lat="59.9841964" lon="17.7381598">
        <ele>44.358</ele>
        <time>2012-07-10T07:32:11Z</time>
      </trkpt>
      <trkpt lat="59.9841543" lon="17.7381995">
        <ele>43.3966</ele>
        <time>2012-07-10T07:32:14Z</time>
      </trkpt>
      <trkpt lat="59.9840721" lon="17.7382002">
        <ele>47.7225</ele>
        <time>2012-07-10T07:32:21Z</time>
      </trkpt>
      <trkpt lat="59.9840616" lon="17.7382137">
        <ele>45.7999</ele>
        <time>2012-07-10T07:32:22Z</time>
      </trkpt>
      <trkpt lat="59.9839968" lon="17.7381834">
        <ele>44.358</ele>
        <time>2012-07-10T07:32:28Z</time>
      </trkpt>
      <trkpt lat="59.9839017" lon="17.7381691">
        <ele>37.1481</ele>
        <time>2012-07-10T07:32:34Z</time>
      </trkpt>
      <trkpt lat="59.9837655" lon="17.7382037">
        <ele>30.8995</ele>
        <time>2012-07-10T07:32:41Z</time>
      </trkpt>
      <trkpt lat="59.9836586" lon="17.7382643">
        <ele>32.8223</ele>
        <time>2012-07-10T07:32:48Z</time>
      </trkpt>
      <trkpt lat="59.9836256" lon="17.7382768">
        <ele>35.2255</ele>
        <time>2012-07-10T07:32:51Z</time>
      </trkpt>
      <trkpt lat="59.9835349" lon="17.738157">
        <ele>46.2806</ele>
        <time>2012-07-10T07:32:59Z</time>
      </trkpt>
      <trkpt lat="59.9834055" lon="17.7382421">
        <ele>43.3966</ele>
        <time>2012-07-10T07:33:05Z</time>
      </trkpt>
      <trkpt lat="59.9833163" lon="17.7382131">
        <ele>48.684</ele>
        <time>2012-07-10T07:33:11Z</time>
      </trkpt>
      <trkpt lat="59.9832081" lon="17.7382934">
        <ele>41.474</ele>
        <time>2012-07-10T07:33:17Z</time>
      </trkpt>
      <trkpt lat="59.9832027" lon="17.738288">
        <ele>40.9934</ele>
        <time>2012-07-10T07:33:18Z</time>
      </trkpt>
      <trkpt lat="59.9831028" lon="17.7382502">
        <ele>47.7225</ele>
        <time>2012-07-10T07:33:26Z</time>
      </trkpt>
      <trkpt lat="59.9829521" lon="17.7382924">
        <ele>44.358</ele>
        <time>2012-07-10T07:33:32Z</time>
      </trkpt>
      <trkpt lat="59.9828637" lon="17.7382943">
        <ele>43.8773</ele>
        <time>2012-07-10T07:33:38Z</time>
      </trkpt>
      <trkpt lat="59.9827717" lon="17.7382492">
        <ele>45.7999</ele>
        <time>2012-07-10T07:33:43Z</time>
      </trkpt>
      <trkpt lat="59.9826967" lon="17.7381783">
        <ele>45.7999</ele>
        <time>2012-07-10T07:33:51Z</time>
      </trkpt>
      <trkpt lat="59.9825777" lon="17.7382731">
        <ele>40.0321</ele>
        <time>2012-07-10T07:33:57Z</time>
      </trkpt>
      <trkpt lat="59.9825294" lon="17.7381884">
        <ele>45.7999</ele>
        <time>2012-07-10T07:34:01Z</time>
      </trkpt>
      <trkpt lat="59.9825045" lon="17.7381993">
        <ele>45.7999</ele>
        <time>2012-07-10T07:34:02Z</time>
      </trkpt>
      <trkpt lat="59.9823236" lon="17.7382939">
        <ele>44.358</ele>
        <time>2012-07-10T07:34:10Z</time>
      </trkpt>
      <trkpt lat="59.9822001" lon="17.7382823">
        <ele>47.2418</ele>
        <time>2012-07-10T07:34:17Z</time>
      </trkpt>
      <trkpt lat="59.9821301" lon="17.7383716">
        <ele>47.2418</ele>
        <time>2012-07-10T07:34:22Z</time>
      </trkpt>
      <trkpt lat="59.9821079" lon="17.7383399">
        <ele>53.4905</ele>
        <time>2012-07-10T07:34:26Z</time>
      </trkpt>
      <trkpt lat="59.9820317" lon="17.7383644">
        <ele>52.5292</ele>
        <time>2012-07-10T07:34:31Z</time>
      </trkpt>
      <trkpt lat="59.981941" lon="17.7383396">
        <ele>54.9324</ele>
        <time>2012-07-10T07:34:39Z</time>
      </trkpt>
      <trkpt lat="59.9818172" lon="17.7384027">
        <ele>48.2034</ele>
        <time>2012-07-10T07:34:45Z</time>
      </trkpt>
      <trkpt lat="59.981753" lon="17.73841">
        <ele>48.684</ele>
        <time>2012-07-10T07:34:50Z</time>
      </trkpt>
      <trkpt lat="59.9816738" lon="17.7384307">
        <ele>50.126</ele>
        <time>2012-07-10T07:34:57Z</time>
      </trkpt>
      <trkpt lat="59.9815918" lon="17.7385084">
        <ele>48.684</ele>
        <time>2012-07-10T07:35:02Z</time>
      </trkpt>
      <trkpt lat="59.98155" lon="17.7385461">
        <ele>46.7612</ele>
        <time>2012-07-10T07:35:05Z</time>
      </trkpt>
      <trkpt lat="59.9814536" lon="17.738552">
        <ele>47.2418</ele>
        <time>2012-07-10T07:35:12Z</time>
      </trkpt>
      <trkpt lat="59.9813993" lon="17.738579">
        <ele>50.6066</ele>
        <time>2012-07-10T07:35:17Z</time>
      </trkpt>
      <trkpt lat="59.981378" lon="17.7385595">
        <ele>52.0486</ele>
        <time>2012-07-10T07:35:19Z</time>
      </trkpt>
      <trkpt lat="59.9812464" lon="17.7386353">
        <ele>48.2034</ele>
        <time>2012-07-10T07:35:25Z</time>
      </trkpt>
      <trkpt lat="59.9811555" lon="17.738694">
        <ele>42.4354</ele>
        <time>2012-07-10T07:35:31Z</time>
      </trkpt>
      <trkpt lat="59.9810164" lon="17.738652">
        <ele>48.2034</ele>
        <time>2012-07-10T07:35:37Z</time>
      </trkpt>
      <trkpt lat="59.9809061" lon="17.738669">
        <ele>53.0098</ele>
        <time>2012-07-10T07:35:44Z</time>
      </trkpt>
      <trkpt lat="59.9808406" lon="17.7386964">
        <ele>51.5679</ele>
        <time>2012-07-10T07:35:50Z</time>
      </trkpt>
      <trkpt lat="59.9807451" lon="17.7387981">
        <ele>43.3966</ele>
        <time>2012-07-10T07:35:57Z</time>
      </trkpt>
      <trkpt lat="59.9806548" lon="17.7388017">
        <ele>49.1646</ele>
        <time>2012-07-10T07:36:03Z</time>
      </trkpt>
      <trkpt lat="59.9806041" lon="17.7388061">
        <ele>49.6453</ele>
        <time>2012-07-10T07:36:07Z</time>
      </trkpt>
      <trkpt lat="59.980475" lon="17.7388228">
        <ele>46.7612</ele>
        <time>2012-07-10T07:36:15Z</time>
      </trkpt>
      <trkpt lat="59.9803803" lon="17.7389633">
        <ele>39.0707</ele>
        <time>2012-07-10T07:36:19Z</time>
      </trkpt>
      <trkpt lat="59.9802775" lon="17.7389472">
        <ele>37.6287</ele>
        <time>2012-07-10T07:36:25Z</time>
      </trkpt>
      <trkpt lat="59.9801938" lon="17.7389026">
        <ele>30.4188</ele>
        <time>2012-07-10T07:36:32Z</time>
      </trkpt>
      <trkpt lat="59.9801038" lon="17.7389128">
        <ele>36.1868</ele>
        <time>2012-07-10T07:36:38Z</time>
      </trkpt>
      <trkpt lat="59.980091" lon="17.738884">
        <ele>36.6675</ele>
        <time>2012-07-10T07:36:40Z</time>
      </trkpt>
      <trkpt lat="59.9800226" lon="17.7388725">
        <ele>36.6675</ele>
        <time>2012-07-10T07:36:44Z</time>
      </trkpt>
      <trkpt lat="59.9799199" lon="17.7387644">
        <ele>47.7225</ele>
        <time>2012-07-10T07:36:52Z</time>
      </trkpt>
      <trkpt lat="59.9798393" lon="17.7387431">
        <ele>56.3745</ele>
        <time>2012-07-10T07:36:57Z</time>
      </trkpt>
      <trkpt lat="59.9797512" lon="17.7386714">
        <ele>66.949</ele>
        <time>2012-07-10T07:37:01Z</time>
      </trkpt>
      <trkpt lat="59.9796896" lon="17.738756">
        <ele>59.7391</ele>
        <time>2012-07-10T07:37:05Z</time>
      </trkpt>
      <trkpt lat="59.9795961" lon="17.7389255">
        <ele>50.126</ele>
        <time>2012-07-10T07:37:10Z</time>
      </trkpt>
      <trkpt lat="59.9795473" lon="17.7389871">
        <ele>41.474</ele>
        <time>2012-07-10T07:37:13Z</time>
      </trkpt>
      <trkpt lat="59.9795023" lon="17.7390047">
        <ele>33.7834</ele>
        <time>2012-07-10T07:37:19Z</time>
      </trkpt>
      <trkpt lat="59.9794654" lon="17.7389913">
        <ele>32.8223</ele>
        <time>2012-07-10T07:37:24Z</time>
      </trkpt>
      <trkpt lat="59.9793898" lon="17.7390537">
        <ele>28.9769</ele>
        <time>2012-07-10T07:37:29Z</time>
      </trkpt>
      <trkpt lat="59.979328" lon="17.7391006">
        <ele>26.5736</ele>
        <time>2012-07-10T07:37:33Z</time>
      </trkpt>
      <trkpt lat="59.9792323" lon="17.739174">
        <ele>30.8995</ele>
        <time>2012-07-10T07:37:39Z</time>
      </trkpt>
      <trkpt lat="59.9791293" lon="17.7392539">
        <ele>30.8995</ele>
        <time>2012-07-10T07:37:46Z</time>
      </trkpt>
      <trkpt lat="59.9790573" lon="17.7393036">
        <ele>31.3801</ele>
        <time>2012-07-10T07:37:51Z</time>
      </trkpt>
      <trkpt lat="59.9790438" lon="17.7393256">
        <ele>30.8995</ele>
        <time>2012-07-10T07:37:52Z</time>
      </trkpt>
      <trkpt lat="59.9789112" lon="17.7393963">
        <ele>34.2642</ele>
        <time>2012-07-10T07:38:00Z</time>
      </trkpt>
      <trkpt lat="59.978892" lon="17.7394427">
        <ele>33.3029</ele>
        <time>2012-07-10T07:38:02Z</time>
      </trkpt>
      <trkpt lat="59.9788839" lon="17.7395165">
        <ele>32.8223</ele>
        <time>2012-07-10T07:38:06Z</time>
      </trkpt>
      <trkpt lat="59.978837" lon="17.7396579">
        <ele>35.7061</ele>
        <time>2012-07-10T07:38:12Z</time>
      </trkpt>
      <trkpt lat="59.9787827" lon="17.739733">
        <ele>34.2642</ele>
        <time>2012-07-10T07:38:16Z</time>
      </trkpt>
      <trkpt lat="59.9788164" lon="17.7398491">
        <ele>34.7449</ele>
        <time>2012-07-10T07:38:22Z</time>
      </trkpt>
      <trkpt lat="59.9788268" lon="17.7399077">
        <ele>34.7449</ele>
        <time>2012-07-10T07:38:25Z</time>
      </trkpt>
    </trkseg>
  </trk>
</gpx>